sensor_id;sensor_type;location;lat;lon;timestamp;P1;durP1;ratioP1;P2;durP2;ratioP2
53409;SDS011;66590;50.734;4.246;2023-02-15T00:00:10;79.53;;;45.72;;
53409;SDS011;66590;50.734;4.246;2023-02-15T00:02:38;71.63;;;44.38;;
53409;SDS011;66590;50.734;4.246;2023-02-15T00:05:06;78.75;;;44.15;;
53409;SDS011;66590;50.734;4.246;2023-02-15T00:07:34;72.97;;;45.55;;
53409;SDS011;66590;50.734;4.246;2023-02-15T00:10:03;69.68;;;44.33;;
53409;SDS011;66590;50.734;4.246;2023-02-15T00:12:31;70.30;;;42.60;;
53409;SDS011;66590;50.734;4.246;2023-02-15T00:14:58;79.60;;;45.13;;
53409;SDS011;66590;50.734;4.246;2023-02-15T00:17:26;72.80;;;46.25;;
53409;SDS011;66590;50.734;4.246;2023-02-15T00:19:53;78.10;;;45.13;;
53409;SDS011;66590;50.734;4.246;2023-02-15T00:22:20;70.70;;;45.15;;
53409;SDS011;66590;50.734;4.246;2023-02-15T00:24:47;73.35;;;44.83;;
53409;SDS011;66590;50.734;4.246;2023-02-15T00:27:16;73.32;;;44.33;;
53409;SDS011;66590;50.734;4.246;2023-02-15T00:29:43;74.88;;;45.17;;
53409;SDS011;66590;50.734;4.246;2023-02-15T00:32:10;79.50;;;47.75;;
53409;SDS011;66590;50.734;4.246;2023-02-15T00:34:37;76.43;;;45.78;;
53409;SDS011;66590;50.734;4.246;2023-02-15T00:37:04;70.10;;;45.40;;
53409;SDS011;66590;50.734;4.246;2023-02-15T00:39:31;74.47;;;44.45;;
53409;SDS011;66590;50.734;4.246;2023-02-15T00:41:58;69.03;;;42.63;;
53409;SDS011;66590;50.734;4.246;2023-02-15T00:44:26;82.85;;;45.75;;
53409;SDS011;66590;50.734;4.246;2023-02-15T00:46:53;76.85;;;47.92;;
53409;SDS011;66590;50.734;4.246;2023-02-15T00:49:20;74.22;;;45.90;;
53409;SDS011;66590;50.734;4.246;2023-02-15T00:51:49;80.40;;;45.58;;
53409;SDS011;66590;50.734;4.246;2023-02-15T00:54:16;76.68;;;46.72;;
53409;SDS011;66590;50.734;4.246;2023-02-15T00:56:43;74.50;;;44.10;;
53409;SDS011;66590;50.734;4.246;2023-02-15T00:59:10;75.80;;;44.55;;
53409;SDS011;66590;50.734;4.246;2023-02-15T01:01:39;71.75;;;41.88;;
53409;SDS011;66590;50.734;4.246;2023-02-15T01:04:06;64.90;;;39.78;;
53409;SDS011;66590;50.734;4.246;2023-02-15T01:06:33;71.38;;;42.53;;
53409;SDS011;66590;50.734;4.246;2023-02-15T01:09:00;67.50;;;41.58;;
53409;SDS011;66590;50.734;4.246;2023-02-15T01:11:27;76.25;;;45.00;;
53409;SDS011;66590;50.734;4.246;2023-02-15T01:13:55;69.57;;;43.47;;
53409;SDS011;66590;50.734;4.246;2023-02-15T01:16:24;76.35;;;43.58;;
53409;SDS011;66590;50.734;4.246;2023-02-15T01:18:54;75.80;;;43.40;;
53409;SDS011;66590;50.734;4.246;2023-02-15T01:21:22;71.70;;;42.90;;
53409;SDS011;66590;50.734;4.246;2023-02-15T01:23:51;70.25;;;41.50;;
53409;SDS011;66590;50.734;4.246;2023-02-15T01:26:18;69.45;;;41.20;;
53409;SDS011;66590;50.734;4.246;2023-02-15T01:28:45;67.05;;;40.00;;
53409;SDS011;66590;50.734;4.246;2023-02-15T01:31:13;69.43;;;41.45;;
53409;SDS011;66590;50.734;4.246;2023-02-15T01:33:42;73.60;;;45.17;;
53409;SDS011;66590;50.734;4.246;2023-02-15T01:36:10;79.13;;;45.75;;
53409;SDS011;66590;50.734;4.246;2023-02-15T01:38:37;74.07;;;44.88;;
53409;SDS011;66590;50.734;4.246;2023-02-15T01:41:05;74.78;;;43.35;;
53409;SDS011;66590;50.734;4.246;2023-02-15T01:43:39;67.85;;;43.22;;
53409;SDS011;66590;50.734;4.246;2023-02-15T01:48:34;77.63;;;43.38;;
53409;SDS011;66590;50.734;4.246;2023-02-15T01:51:07;75.03;;;45.08;;
53409;SDS011;66590;50.734;4.246;2023-02-15T01:53:37;72.45;;;43.05;;
53409;SDS011;66590;50.734;4.246;2023-02-15T01:56:08;73.00;;;43.80;;
53409;SDS011;66590;50.734;4.246;2023-02-15T01:58:39;77.80;;;44.40;;
53409;SDS011;66590;50.734;4.246;2023-02-15T02:01:07;80.45;;;47.58;;
53409;SDS011;66590;50.734;4.246;2023-02-15T02:03:36;80.35;;;46.75;;
53409;SDS011;66590;50.734;4.246;2023-02-15T02:06:09;85.43;;;47.65;;
53409;SDS011;66590;50.734;4.246;2023-02-15T02:08:38;73.40;;;44.65;;
53409;SDS011;66590;50.734;4.246;2023-02-15T02:11:09;74.60;;;43.65;;
53409;SDS011;66590;50.734;4.246;2023-02-15T02:13:37;71.47;;;44.10;;
53409;SDS011;66590;50.734;4.246;2023-02-15T02:16:06;74.53;;;44.42;;
53409;SDS011;66590;50.734;4.246;2023-02-15T02:18:39;65.65;;;42.80;;
53409;SDS011;66590;50.734;4.246;2023-02-15T02:24:27;78.07;;;46.45;;
53409;SDS011;66590;50.734;4.246;2023-02-15T02:27:30;69.25;;;40.28;;
53409;SDS011;66590;50.734;4.246;2023-02-15T02:30:27;67.85;;;42.38;;
53409;SDS011;66590;50.734;4.246;2023-02-15T02:33:19;76.20;;;43.00;;
53409;SDS011;66590;50.734;4.246;2023-02-15T02:35:57;71.53;;;43.58;;
53409;SDS011;66590;50.734;4.246;2023-02-15T02:38:35;70.25;;;41.45;;
53409;SDS011;66590;50.734;4.246;2023-02-15T02:41:13;69.13;;;43.13;;
53409;SDS011;66590;50.734;4.246;2023-02-15T02:43:48;74.15;;;44.22;;
53409;SDS011;66590;50.734;4.246;2023-02-15T02:46:20;70.45;;;42.63;;
53409;SDS011;66590;50.734;4.246;2023-02-15T02:48:54;71.05;;;41.97;;
53409;SDS011;66590;50.734;4.246;2023-02-15T02:51:21;72.10;;;42.83;;
53409;SDS011;66590;50.734;4.246;2023-02-15T02:53:49;73.07;;;40.70;;
53409;SDS011;66590;50.734;4.246;2023-02-15T02:56:20;70.57;;;41.58;;
53409;SDS011;66590;50.734;4.246;2023-02-15T02:58:55;70.38;;;41.20;;
53409;SDS011;66590;50.734;4.246;2023-02-15T03:01:29;68.68;;;40.05;;
53409;SDS011;66590;50.734;4.246;2023-02-15T03:04:01;65.55;;;39.00;;
53409;SDS011;66590;50.734;4.246;2023-02-15T03:06:33;75.43;;;43.80;;
53409;SDS011;66590;50.734;4.246;2023-02-15T03:09:06;75.18;;;41.85;;
53409;SDS011;66590;50.734;4.246;2023-02-15T03:11:37;70.57;;;39.80;;
53409;SDS011;66590;50.734;4.246;2023-02-15T03:14:04;74.97;;;42.05;;
53409;SDS011;66590;50.734;4.246;2023-02-15T03:16:31;75.28;;;42.67;;
53409;SDS011;66590;50.734;4.246;2023-02-15T03:18:59;88.07;;;45.88;;
53409;SDS011;66590;50.734;4.246;2023-02-15T03:21:33;72.78;;;43.08;;
53409;SDS011;66590;50.734;4.246;2023-02-15T03:24:05;70.15;;;41.25;;
53409;SDS011;66590;50.734;4.246;2023-02-15T03:26:35;71.28;;;40.42;;
53409;SDS011;66590;50.734;4.246;2023-02-15T03:29:04;74.47;;;42.00;;
53409;SDS011;66590;50.734;4.246;2023-02-15T03:31:33;67.20;;;40.55;;
53409;SDS011;66590;50.734;4.246;2023-02-15T03:34:08;66.88;;;38.28;;
53409;SDS011;66590;50.734;4.246;2023-02-15T03:36:39;65.47;;;40.80;;
53409;SDS011;66590;50.734;4.246;2023-02-15T03:39:12;68.13;;;42.00;;
53409;SDS011;66590;50.734;4.246;2023-02-15T03:41:46;69.10;;;39.67;;
53409;SDS011;66590;50.734;4.246;2023-02-15T03:44:19;74.75;;;42.50;;
53409;SDS011;66590;50.734;4.246;2023-02-15T03:46:53;69.25;;;42.60;;
53409;SDS011;66590;50.734;4.246;2023-02-15T03:49:28;71.80;;;41.97;;
53409;SDS011;66590;50.734;4.246;2023-02-15T03:52:03;72.07;;;42.03;;
53409;SDS011;66590;50.734;4.246;2023-02-15T03:54:33;65.97;;;41.22;;
53409;SDS011;66590;50.734;4.246;2023-02-15T03:57:02;69.80;;;39.85;;
53409;SDS011;66590;50.734;4.246;2023-02-15T03:59:30;72.53;;;41.33;;
53409;SDS011;66590;50.734;4.246;2023-02-15T04:01:59;66.38;;;41.60;;
53409;SDS011;66590;50.734;4.246;2023-02-15T04:04:39;72.50;;;41.42;;
53409;SDS011;66590;50.734;4.246;2023-02-15T04:07:09;70.20;;;40.45;;
53409;SDS011;66590;50.734;4.246;2023-02-15T04:09:36;68.75;;;39.85;;
53409;SDS011;66590;50.734;4.246;2023-02-15T04:12:04;74.72;;;40.17;;
53409;SDS011;66590;50.734;4.246;2023-02-15T04:14:31;63.33;;;38.88;;
53409;SDS011;66590;50.734;4.246;2023-02-15T04:16:58;71.38;;;42.97;;
53409;SDS011;66590;50.734;4.246;2023-02-15T04:19:25;74.63;;;42.58;;
53409;SDS011;66590;50.734;4.246;2023-02-15T04:21:53;75.20;;;43.42;;
53409;SDS011;66590;50.734;4.246;2023-02-15T04:24:20;77.13;;;43.50;;
53409;SDS011;66590;50.734;4.246;2023-02-15T04:26:47;75.68;;;43.60;;
53409;SDS011;66590;50.734;4.246;2023-02-15T04:29:14;75.43;;;44.50;;
53409;SDS011;66590;50.734;4.246;2023-02-15T04:31:41;74.00;;;44.25;;
53409;SDS011;66590;50.734;4.246;2023-02-15T04:34:08;73.90;;;44.08;;
53409;SDS011;66590;50.734;4.246;2023-02-15T04:36:35;74.75;;;41.90;;
53409;SDS011;66590;50.734;4.246;2023-02-15T04:39:04;75.10;;;44.35;;
53409;SDS011;66590;50.734;4.246;2023-02-15T04:41:32;70.93;;;42.40;;
53409;SDS011;66590;50.734;4.246;2023-02-15T04:43:59;64.88;;;41.15;;
53409;SDS011;66590;50.734;4.246;2023-02-15T04:46:27;64.75;;;39.53;;
53409;SDS011;66590;50.734;4.246;2023-02-15T04:48:54;72.20;;;42.05;;
53409;SDS011;66590;50.734;4.246;2023-02-15T04:51:21;75.65;;;43.60;;
53409;SDS011;66590;50.734;4.246;2023-02-15T04:53:48;72.80;;;43.03;;
53409;SDS011;66590;50.734;4.246;2023-02-15T04:56:17;71.63;;;40.78;;
53409;SDS011;66590;50.734;4.246;2023-02-15T04:58:44;67.65;;;40.10;;
53409;SDS011;66590;50.734;4.246;2023-02-15T05:01:11;70.28;;;42.38;;
53409;SDS011;66590;50.734;4.246;2023-02-15T05:03:38;65.28;;;39.35;;
53409;SDS011;66590;50.734;4.246;2023-02-15T05:06:05;68.80;;;40.97;;
53409;SDS011;66590;50.734;4.246;2023-02-15T05:08:32;77.20;;;42.60;;
53409;SDS011;66590;50.734;4.246;2023-02-15T05:10:59;66.38;;;39.17;;
53409;SDS011;66590;50.734;4.246;2023-02-15T05:13:27;68.65;;;40.65;;
53409;SDS011;66590;50.734;4.246;2023-02-15T05:15:54;68.50;;;40.40;;
53409;SDS011;66590;50.734;4.246;2023-02-15T05:18:22;67.30;;;40.53;;
53409;SDS011;66590;50.734;4.246;2023-02-15T05:20:49;72.18;;;41.75;;
53409;SDS011;66590;50.734;4.246;2023-02-15T05:23:16;68.00;;;39.72;;
53409;SDS011;66590;50.734;4.246;2023-02-15T05:25:46;70.97;;;40.60;;
53409;SDS011;66590;50.734;4.246;2023-02-15T05:28:13;72.72;;;41.65;;
53409;SDS011;66590;50.734;4.246;2023-02-15T05:30:42;75.00;;;42.13;;
53409;SDS011;66590;50.734;4.246;2023-02-15T05:33:09;68.85;;;40.80;;
53409;SDS011;66590;50.734;4.246;2023-02-15T05:35:37;64.15;;;38.53;;
53409;SDS011;66590;50.734;4.246;2023-02-15T05:38:04;65.75;;;40.05;;
53409;SDS011;66590;50.734;4.246;2023-02-15T05:40:31;75.63;;;41.67;;
53409;SDS011;66590;50.734;4.246;2023-02-15T05:42:58;66.97;;;38.97;;
53409;SDS011;66590;50.734;4.246;2023-02-15T05:45:25;67.53;;;38.75;;
53409;SDS011;66590;50.734;4.246;2023-02-15T05:47:53;70.50;;;40.45;;
53409;SDS011;66590;50.734;4.246;2023-02-15T05:50:20;71.65;;;42.28;;
53409;SDS011;66590;50.734;4.246;2023-02-15T05:52:47;72.68;;;40.95;;
53409;SDS011;66590;50.734;4.246;2023-02-15T05:55:17;75.30;;;42.25;;
53409;SDS011;66590;50.734;4.246;2023-02-15T05:57:44;73.97;;;42.60;;
53409;SDS011;66590;50.734;4.246;2023-02-15T06:00:12;78.25;;;44.65;;
53409;SDS011;66590;50.734;4.246;2023-02-15T06:02:40;67.35;;;40.33;;
53409;SDS011;66590;50.734;4.246;2023-02-15T06:05:08;66.90;;;39.35;;
53409;SDS011;66590;50.734;4.246;2023-02-15T06:07:36;66.45;;;40.42;;
53409;SDS011;66590;50.734;4.246;2023-02-15T06:10:03;77.78;;;41.97;;
53409;SDS011;66590;50.734;4.246;2023-02-15T06:12:31;67.32;;;40.22;;
53409;SDS011;66590;50.734;4.246;2023-02-15T06:14:58;70.75;;;40.83;;
53409;SDS011;66590;50.734;4.246;2023-02-15T06:17:25;70.97;;;41.00;;
53409;SDS011;66590;50.734;4.246;2023-02-15T06:19:52;72.53;;;41.05;;
53409;SDS011;66590;50.734;4.246;2023-02-15T06:22:20;67.25;;;38.95;;
53409;SDS011;66590;50.734;4.246;2023-02-15T06:24:48;67.80;;;38.83;;
53409;SDS011;66590;50.734;4.246;2023-02-15T06:27:15;69.07;;;40.30;;
53409;SDS011;66590;50.734;4.246;2023-02-15T06:29:42;63.13;;;38.65;;
53409;SDS011;66590;50.734;4.246;2023-02-15T06:32:09;66.72;;;40.30;;
53409;SDS011;66590;50.734;4.246;2023-02-15T06:34:36;73.75;;;40.90;;
53409;SDS011;66590;50.734;4.246;2023-02-15T06:37:03;71.47;;;40.50;;
53409;SDS011;66590;50.734;4.246;2023-02-15T06:39:31;74.93;;;40.35;;
53409;SDS011;66590;50.734;4.246;2023-02-15T06:41:58;72.22;;;42.72;;
53409;SDS011;66590;50.734;4.246;2023-02-15T06:44:25;72.28;;;41.38;;
53409;SDS011;66590;50.734;4.246;2023-02-15T06:46:52;69.40;;;42.17;;
53409;SDS011;66590;50.734;4.246;2023-02-15T06:49:19;68.72;;;41.83;;
53409;SDS011;66590;50.734;4.246;2023-02-15T06:51:46;65.85;;;40.60;;
53409;SDS011;66590;50.734;4.246;2023-02-15T06:54:14;74.18;;;41.35;;
53409;SDS011;66590;50.734;4.246;2023-02-15T06:56:43;73.18;;;41.95;;
53409;SDS011;66590;50.734;4.246;2023-02-15T06:59:10;69.47;;;40.90;;
53409;SDS011;66590;50.734;4.246;2023-02-15T07:01:37;68.07;;;38.72;;
53409;SDS011;66590;50.734;4.246;2023-02-15T07:04:04;87.15;;;42.47;;
53409;SDS011;66590;50.734;4.246;2023-02-15T07:06:31;75.00;;;40.67;;
53409;SDS011;66590;50.734;4.246;2023-02-15T07:08:59;75.97;;;40.13;;
53409;SDS011;66590;50.734;4.246;2023-02-15T07:11:26;88.07;;;42.08;;
53409;SDS011;66590;50.734;4.246;2023-02-15T07:13:55;72.85;;;40.38;;
53409;SDS011;66590;50.734;4.246;2023-02-15T07:16:22;109.40;;;42.22;;
53409;SDS011;66590;50.734;4.246;2023-02-15T07:18:49;92.20;;;41.03;;
53409;SDS011;66590;50.734;4.246;2023-02-15T07:21:16;95.53;;;42.15;;
53409;SDS011;66590;50.734;4.246;2023-02-15T07:23:44;77.75;;;41.88;;
53409;SDS011;66590;50.734;4.246;2023-02-15T07:26:11;82.47;;;42.67;;
53409;SDS011;66590;50.734;4.246;2023-02-15T07:28:38;81.47;;;43.78;;
53409;SDS011;66590;50.734;4.246;2023-02-15T07:31:07;79.82;;;41.35;;
53409;SDS011;66590;50.734;4.246;2023-02-15T07:33:34;82.35;;;41.78;;
53409;SDS011;66590;50.734;4.246;2023-02-15T07:36:02;72.88;;;40.75;;
53409;SDS011;66590;50.734;4.246;2023-02-15T07:38:31;86.97;;;41.88;;
53409;SDS011;66590;50.734;4.246;2023-02-15T07:40:59;91.45;;;42.30;;
53409;SDS011;66590;50.734;4.246;2023-02-15T07:43:27;98.13;;;43.38;;
53409;SDS011;66590;50.734;4.246;2023-02-15T07:45:54;76.50;;;41.17;;
53409;SDS011;66590;50.734;4.246;2023-02-15T07:48:27;73.75;;;40.92;;
53409;SDS011;66590;50.734;4.246;2023-02-15T07:50:58;73.35;;;41.25;;
53409;SDS011;66590;50.734;4.246;2023-02-15T07:53:25;75.97;;;40.70;;
53409;SDS011;66590;50.734;4.246;2023-02-15T07:55:53;73.05;;;39.05;;
53409;SDS011;66590;50.734;4.246;2023-02-15T07:58:20;80.85;;;40.72;;
53409;SDS011;66590;50.734;4.246;2023-02-15T08:00:47;73.47;;;40.15;;
53409;SDS011;66590;50.734;4.246;2023-02-15T08:03:14;75.57;;;40.75;;
53409;SDS011;66590;50.734;4.246;2023-02-15T08:05:44;64.70;;;40.42;;
53409;SDS011;66590;50.734;4.246;2023-02-15T08:08:11;66.22;;;40.78;;
53409;SDS011;66590;50.734;4.246;2023-02-15T08:10:38;92.90;;;44.22;;
53409;SDS011;66590;50.734;4.246;2023-02-15T08:13:06;106.25;;;46.30;;
53409;SDS011;66590;50.734;4.246;2023-02-15T08:15:33;115.05;;;47.10;;
53409;SDS011;66590;50.734;4.246;2023-02-15T08:17:59;112.63;;;46.63;;
53409;SDS011;66590;50.734;4.246;2023-02-15T08:20:27;94.20;;;46.35;;
53409;SDS011;66590;50.734;4.246;2023-02-15T08:22:55;84.82;;;45.22;;
53409;SDS011;66590;50.734;4.246;2023-02-15T08:25:22;74.55;;;44.65;;
53409;SDS011;66590;50.734;4.246;2023-02-15T08:27:49;77.20;;;44.60;;
53409;SDS011;66590;50.734;4.246;2023-02-15T08:30:16;75.30;;;44.15;;
53409;SDS011;66590;50.734;4.246;2023-02-15T08:32:43;78.88;;;44.53;;
53409;SDS011;66590;50.734;4.246;2023-02-15T08:35:10;76.00;;;43.85;;
53409;SDS011;66590;50.734;4.246;2023-02-15T08:37:37;72.63;;;45.08;;
53409;SDS011;66590;50.734;4.246;2023-02-15T08:40:07;77.18;;;46.03;;
53409;SDS011;66590;50.734;4.246;2023-02-15T08:42:34;79.55;;;45.13;;
53409;SDS011;66590;50.734;4.246;2023-02-15T08:45:01;72.53;;;44.05;;
53409;SDS011;66590;50.734;4.246;2023-02-15T08:47:28;75.82;;;44.47;;
53409;SDS011;66590;50.734;4.246;2023-02-15T08:49:55;74.95;;;44.17;;
53409;SDS011;66590;50.734;4.246;2023-02-15T08:52:23;72.18;;;42.58;;
53409;SDS011;66590;50.734;4.246;2023-02-15T08:54:49;70.10;;;42.35;;
53409;SDS011;66590;50.734;4.246;2023-02-15T08:57:18;73.18;;;42.20;;
53409;SDS011;66590;50.734;4.246;2023-02-15T08:59:45;69.20;;;43.13;;
53409;SDS011;66590;50.734;4.246;2023-02-15T09:02:13;67.82;;;41.13;;
53409;SDS011;66590;50.734;4.246;2023-02-15T09:04:40;72.32;;;43.50;;
53409;SDS011;66590;50.734;4.246;2023-02-15T09:07:07;66.82;;;42.28;;
53409;SDS011;66590;50.734;4.246;2023-02-15T09:09:34;71.47;;;43.03;;
53409;SDS011;66590;50.734;4.246;2023-02-15T09:12:01;70.78;;;42.47;;
53409;SDS011;66590;50.734;4.246;2023-02-15T09:14:29;78.18;;;41.70;;
53409;SDS011;66590;50.734;4.246;2023-02-15T09:16:57;69.05;;;41.25;;
53409;SDS011;66590;50.734;4.246;2023-02-15T09:19:24;65.15;;;41.03;;
53409;SDS011;66590;50.734;4.246;2023-02-15T09:21:51;67.50;;;40.47;;
53409;SDS011;66590;50.734;4.246;2023-02-15T09:24:18;66.47;;;40.00;;
53409;SDS011;66590;50.734;4.246;2023-02-15T09:26:46;64.22;;;39.10;;
53409;SDS011;66590;50.734;4.246;2023-02-15T09:29:14;63.65;;;37.45;;
53409;SDS011;66590;50.734;4.246;2023-02-15T09:31:44;71.25;;;37.55;;
53409;SDS011;66590;50.734;4.246;2023-02-15T09:34:12;63.15;;;36.00;;
53409;SDS011;66590;50.734;4.246;2023-02-15T09:36:41;65.93;;;36.90;;
53409;SDS011;66590;50.734;4.246;2023-02-15T09:39:09;62.95;;;36.53;;
53409;SDS011;66590;50.734;4.246;2023-02-15T09:41:45;79.93;;;37.55;;
53409;SDS011;66590;50.734;4.246;2023-02-15T09:44:39;60.53;;;33.95;;
53409;SDS011;66590;50.734;4.246;2023-02-15T09:47:26;68.45;;;34.85;;
53409;SDS011;66590;50.734;4.246;2023-02-15T09:50:05;61.08;;;34.50;;
53409;SDS011;66590;50.734;4.246;2023-02-15T09:55:15;53.70;;;32.47;;
53409;SDS011;66590;50.734;4.246;2023-02-15T09:57:57;67.78;;;34.63;;
53409;SDS011;66590;50.734;4.246;2023-02-15T10:00:34;69.00;;;34.60;;
53409;SDS011;66590;50.734;4.246;2023-02-15T10:03:16;63.05;;;31.08;;
53409;SDS011;66590;50.734;4.246;2023-02-15T10:06:07;53.83;;;32.28;;
53409;SDS011;66590;50.734;4.246;2023-02-15T10:08:55;55.70;;;31.92;;
53409;SDS011;66590;50.734;4.246;2023-02-15T10:11:41;49.78;;;30.17;;
53409;SDS011;66590;50.734;4.246;2023-02-15T10:17:19;61.42;;;33.10;;
53409;SDS011;66590;50.734;4.246;2023-02-15T10:20:03;57.53;;;31.38;;
53409;SDS011;66590;50.734;4.246;2023-02-15T10:22:45;44.90;;;28.90;;
53409;SDS011;66590;50.734;4.246;2023-02-15T10:25:21;48.65;;;28.75;;
53409;SDS011;66590;50.734;4.246;2023-02-15T10:27:58;45.83;;;28.15;;
53409;SDS011;66590;50.734;4.246;2023-02-15T10:30:33;46.78;;;29.27;;
53409;SDS011;66590;50.734;4.246;2023-02-15T10:33:10;45.25;;;27.42;;
53409;SDS011;66590;50.734;4.246;2023-02-15T10:35:47;46.25;;;26.73;;
53409;SDS011;66590;50.734;4.246;2023-02-15T10:38:22;47.97;;;28.38;;
53409;SDS011;66590;50.734;4.246;2023-02-15T10:41:01;42.22;;;27.05;;
53409;SDS011;66590;50.734;4.246;2023-02-15T10:43:42;54.78;;;27.75;;
53409;SDS011;66590;50.734;4.246;2023-02-15T10:46:32;44.65;;;27.45;;
53409;SDS011;66590;50.734;4.246;2023-02-15T10:49:15;50.13;;;29.42;;
53409;SDS011;66590;50.734;4.246;2023-02-15T10:52:03;76.57;;;30.83;;
53409;SDS011;66590;50.734;4.246;2023-02-15T10:54:44;58.53;;;29.80;;
53409;SDS011;66590;50.734;4.246;2023-02-15T10:57:16;44.67;;;28.55;;
53409;SDS011;66590;50.734;4.246;2023-02-15T10:59:55;46.03;;;28.38;;
53409;SDS011;66590;50.734;4.246;2023-02-15T11:02:35;46.88;;;28.50;;
53409;SDS011;66590;50.734;4.246;2023-02-15T11:05:20;47.53;;;28.30;;
53409;SDS011;66590;50.734;4.246;2023-02-15T11:07:59;45.88;;;28.55;;
53409;SDS011;66590;50.734;4.246;2023-02-15T11:10:30;47.38;;;28.10;;
53409;SDS011;66590;50.734;4.246;2023-02-15T11:13:02;48.53;;;29.90;;
53409;SDS011;66590;50.734;4.246;2023-02-15T11:15:35;49.90;;;30.05;;
53409;SDS011;66590;50.734;4.246;2023-02-15T11:18:06;45.58;;;28.38;;
53409;SDS011;66590;50.734;4.246;2023-02-15T11:20:41;46.33;;;30.23;;
53409;SDS011;66590;50.734;4.246;2023-02-15T11:23:16;51.33;;;30.15;;
53409;SDS011;66590;50.734;4.246;2023-02-15T11:25:44;50.25;;;30.00;;
53409;SDS011;66590;50.734;4.246;2023-02-15T11:28:19;46.90;;;29.15;;
53409;SDS011;66590;50.734;4.246;2023-02-15T11:30:53;50.20;;;30.27;;
53409;SDS011;66590;50.734;4.246;2023-02-15T11:33:22;54.08;;;33.10;;
53409;SDS011;66590;50.734;4.246;2023-02-15T11:35:55;52.00;;;32.88;;
53409;SDS011;66590;50.734;4.246;2023-02-15T11:38:28;55.78;;;35.15;;
53409;SDS011;66590;50.734;4.246;2023-02-15T11:40:59;51.80;;;32.65;;
53409;SDS011;66590;50.734;4.246;2023-02-15T11:43:32;52.00;;;31.58;;
53409;SDS011;66590;50.734;4.246;2023-02-15T11:46:04;54.22;;;33.30;;
53409;SDS011;66590;50.734;4.246;2023-02-15T11:48:31;51.15;;;33.15;;
53409;SDS011;66590;50.734;4.246;2023-02-15T11:50:59;109.28;;;39.92;;
53409;SDS011;66590;50.734;4.246;2023-02-15T11:53:31;58.28;;;33.90;;
53409;SDS011;66590;50.734;4.246;2023-02-15T11:55:59;52.80;;;33.70;;
53409;SDS011;66590;50.734;4.246;2023-02-15T11:58:28;56.60;;;33.53;;
53409;SDS011;66590;50.734;4.246;2023-02-15T12:01:00;53.75;;;34.58;;
53409;SDS011;66590;50.734;4.246;2023-02-15T12:03:39;55.88;;;33.30;;
53409;SDS011;66590;50.734;4.246;2023-02-15T12:06:15;56.78;;;33.85;;
53409;SDS011;66590;50.734;4.246;2023-02-15T12:08:48;51.03;;;31.88;;
53409;SDS011;66590;50.734;4.246;2023-02-15T12:11:33;53.60;;;30.83;;
53409;SDS011;66590;50.734;4.246;2023-02-15T12:14:03;71.97;;;35.40;;
53409;SDS011;66590;50.734;4.246;2023-02-15T12:16:32;64.55;;;35.20;;
53409;SDS011;66590;50.734;4.246;2023-02-15T12:19:09;58.15;;;35.42;;
53409;SDS011;66590;50.734;4.246;2023-02-15T12:21:48;57.28;;;36.10;;
53409;SDS011;66590;50.734;4.246;2023-02-15T12:24:19;60.33;;;38.08;;
53409;SDS011;66590;50.734;4.246;2023-02-15T12:26:55;63.60;;;38.08;;
53409;SDS011;66590;50.734;4.246;2023-02-15T12:29:25;59.78;;;36.33;;
53409;SDS011;66590;50.734;4.246;2023-02-15T12:31:56;62.60;;;37.05;;
53409;SDS011;66590;50.734;4.246;2023-02-15T12:34:25;60.83;;;35.40;;
53409;SDS011;66590;50.734;4.246;2023-02-15T12:36:56;61.88;;;35.65;;
53409;SDS011;66590;50.734;4.246;2023-02-15T12:39:28;63.75;;;36.72;;
53409;SDS011;66590;50.734;4.246;2023-02-15T12:42:01;69.28;;;36.92;;
53409;SDS011;66590;50.734;4.246;2023-02-15T12:44:30;56.42;;;35.13;;
53409;SDS011;66590;50.734;4.246;2023-02-15T12:46:59;56.38;;;35.70;;
53409;SDS011;66590;50.734;4.246;2023-02-15T12:49:28;58.45;;;37.58;;
53409;SDS011;66590;50.734;4.246;2023-02-15T12:51:57;61.20;;;37.55;;
53409;SDS011;66590;50.734;4.246;2023-02-15T12:54:36;64.63;;;40.55;;
53409;SDS011;66590;50.734;4.246;2023-02-15T12:57:13;57.97;;;37.25;;
53409;SDS011;66590;50.734;4.246;2023-02-15T12:59:53;59.25;;;38.65;;
53409;SDS011;66590;50.734;4.246;2023-02-15T13:02:23;62.78;;;39.53;;
53409;SDS011;66590;50.734;4.246;2023-02-15T13:04:56;61.47;;;38.65;;
53409;SDS011;66590;50.734;4.246;2023-02-15T13:07:30;61.92;;;38.03;;
53409;SDS011;66590;50.734;4.246;2023-02-15T13:09:59;59.05;;;38.33;;
53409;SDS011;66590;50.734;4.246;2023-02-15T13:12:27;61.25;;;38.95;;
53409;SDS011;66590;50.734;4.246;2023-02-15T13:14:57;58.67;;;36.95;;
53409;SDS011;66590;50.734;4.246;2023-02-15T13:17:25;66.25;;;39.78;;
53409;SDS011;66590;50.734;4.246;2023-02-15T13:19:54;60.70;;;38.15;;
53409;SDS011;66590;50.734;4.246;2023-02-15T13:22:25;59.58;;;38.05;;
53409;SDS011;66590;50.734;4.246;2023-02-15T13:25:01;60.87;;;40.13;;
53409;SDS011;66590;50.734;4.246;2023-02-15T13:27:35;63.40;;;40.20;;
53409;SDS011;66590;50.734;4.246;2023-02-15T13:30:10;65.93;;;40.75;;
53409;SDS011;66590;50.734;4.246;2023-02-15T13:32:46;66.40;;;40.95;;
53409;SDS011;66590;50.734;4.246;2023-02-15T13:35:18;67.47;;;41.40;;
53409;SDS011;66590;50.734;4.246;2023-02-15T13:37:48;64.78;;;41.35;;
53409;SDS011;66590;50.734;4.246;2023-02-15T13:40:37;67.28;;;42.03;;
53409;SDS011;66590;50.734;4.246;2023-02-15T13:43:14;74.50;;;43.45;;
53409;SDS011;66590;50.734;4.246;2023-02-15T13:45:55;70.95;;;43.55;;
53409;SDS011;66590;50.734;4.246;2023-02-15T13:48:34;65.63;;;41.17;;
53409;SDS011;66590;50.734;4.246;2023-02-15T13:51:18;73.28;;;44.50;;
53409;SDS011;66590;50.734;4.246;2023-02-15T13:53:57;73.18;;;43.35;;
53409;SDS011;66590;50.734;4.246;2023-02-15T13:56:45;65.35;;;40.72;;
53409;SDS011;66590;50.734;4.246;2023-02-15T13:59:23;62.22;;;39.08;;
53409;SDS011;66590;50.734;4.246;2023-02-15T14:02:15;62.60;;;39.33;;
53409;SDS011;66590;50.734;4.246;2023-02-15T14:05:01;60.08;;;38.83;;
53409;SDS011;66590;50.734;4.246;2023-02-15T14:07:47;61.97;;;38.53;;
53409;SDS011;66590;50.734;4.246;2023-02-15T14:10:25;62.30;;;38.75;;
53409;SDS011;66590;50.734;4.246;2023-02-15T14:13:09;57.13;;;36.83;;
53409;SDS011;66590;50.734;4.246;2023-02-15T14:16:00;61.10;;;37.85;;
53409;SDS011;66590;50.734;4.246;2023-02-15T14:18:36;60.70;;;38.08;;
53409;SDS011;66590;50.734;4.246;2023-02-15T14:21:09;67.38;;;41.17;;
53409;SDS011;66590;50.734;4.246;2023-02-15T14:23:48;69.72;;;41.72;;
53409;SDS011;66590;50.734;4.246;2023-02-15T14:26:30;65.05;;;42.03;;
53409;SDS011;66590;50.734;4.246;2023-02-15T14:29:05;65.88;;;41.78;;
53409;SDS011;66590;50.734;4.246;2023-02-15T14:31:42;67.88;;;41.17;;
53409;SDS011;66590;50.734;4.246;2023-02-15T14:34:17;72.32;;;41.60;;
53409;SDS011;66590;50.734;4.246;2023-02-15T14:36:47;69.93;;;42.30;;
53409;SDS011;66590;50.734;4.246;2023-02-15T14:39:18;64.80;;;40.72;;
53409;SDS011;66590;50.734;4.246;2023-02-15T14:41:59;69.22;;;43.47;;
53409;SDS011;66590;50.734;4.246;2023-02-15T14:44:33;70.80;;;43.63;;
53409;SDS011;66590;50.734;4.246;2023-02-15T14:47:05;71.10;;;42.60;;
53409;SDS011;66590;50.734;4.246;2023-02-15T14:49:38;74.68;;;44.17;;
53409;SDS011;66590;50.734;4.246;2023-02-15T14:52:06;67.85;;;41.75;;
53409;SDS011;66590;50.734;4.246;2023-02-15T14:57:26;72.05;;;42.97;;